Time;durP1;ratioP1;P1;durP2;ratioP2;P2;SDS_P1;SDS_P2;PMS_P1;PMS_P2;Temp;Humidity;BMP_temperature;BMP_pressure;BME280_temperature;BME280_humidity;BME280_pressure;Samples;Min_cycle;Max_cycle;Signal;HPM_P1;HPM_P2
2023/07/11 00:00:49;;;;;;;5.20;2.70;;;21.20;99.90;;;;;;5057686;28;20078;-69
2023/07/11 00:03:14;;;;;;;4.68;2.83;;;21.20;99.90;;;;;;5058101;28;20021;-69
2023/07/11 00:05:40;;;;;;;4.50;2.55;;;21.20;99.90;;;;;;5058258;28;20028;-69
2023/07/11 00:08:07;;;;;;;5.05;2.80;;;21.20;99.90;;;;;;5058704;28;20025;-69
2023/07/11 00:10:33;;;;;;;3.72;2.63;;;21.20;99.90;;;;;;5057450;28;20031;-69
2023/07/11 00:12:59;;;;;;;4.97;2.78;;;21.20;99.90;;;;;;5058267;28;20029;-69
2023/07/11 00:15:24;;;;;;;6.20;2.50;;;21.20;99.90;;;;;;5057505;28;20086;-69
2023/07/11 00:17:50;;;;;;;3.67;1.92;;;21.20;99.90;;;;;;5057941;28;20029;-69
2023/07/11 00:20:17;;;;;;;4.20;2.17;;;21.30;99.90;;;;;;5057507;28;20055;-69
2023/07/11 00:22:44;;;;;;;4.55;2.17;;;21.30;99.90;;;;;;5058369;28;20025;-69
2023/07/11 00:25:10;;;;;;;3.63;2.10;;;21.20;99.90;;;;;;5058062;28;20029;-69
2023/07/11 00:27:36;;;;;;;3.42;2.05;;;21.20;99.90;;;;;;5057594;28;20033;-69
2023/07/11 00:30:03;;;;;;;5.45;2.10;;;21.10;99.90;;;;;;5057259;28;20033;-69
2023/07/11 00:32:28;;;;;;;9.35;2.33;;;21.20;99.90;;;;;;5057323;28;20118;-69
2023/07/11 00:34:54;;;;;;;3.83;2.33;;;21.30;99.90;;;;;;5056144;28;20029;-69
2023/07/11 00:37:19;;;;;;;6.57;2.60;;;21.20;99.90;;;;;;5057614;28;20063;-69
2023/07/11 00:39:45;;;;;;;4.55;2.10;;;21.10;99.90;;;;;;5057108;28;20033;-69
2023/07/11 00:42:10;;;;;;;2.95;2.10;;;20.90;99.90;;;;;;5057011;28;20075;-69
2023/07/11 00:45:02;;;;;;;4.10;2.03;;;20.70;99.90;;;;;;5057207;28;20021;-69
2023/07/11 00:47:29;;;;;;;3.53;2.10;;;20.70;99.90;;;;;;5057690;28;20036;-69
2023/07/11 00:50:00;;;;;;;5.07;2.30;;;20.80;99.90;;;;;;5056745;28;20056;-69
2023/07/11 00:52:26;;;;;;;;;;;20.70;99.90;;;;;;5057989;28;20021;-69
2023/07/11 00:54:56;;;;;;;4.22;2.53;;;20.70;99.90;;;;;;5053401;28;19909;-69
2023/07/11 00:57:25;;;;;;;5.05;2.10;;;20.60;99.90;;;;;;5037050;28;20022;-69
2023/07/11 00:59:51;;;;;;;4.85;2.35;;;20.50;99.90;;;;;;5037476;28;20079;-69
2023/07/11 01:02:24;;;;;;;2.97;2.25;;;20.50;99.90;;;;;;5037456;28;20033;-69
2023/07/11 01:04:50;;;;;;;6.30;2.90;;;20.40;99.90;;;;;;5036765;28;20052;-69
2023/07/11 01:07:20;;;;;;;3.78;2.33;;;20.30;99.90;;;;;;5037437;28;20060;-69
2023/07/11 01:09:45;;;;;;;7.13;3.03;;;20.30;99.90;;;;;;5036653;28;20034;-69
2023/07/11 01:12:14;;;;;;;10.98;2.60;;;20.20;99.90;;;;;;5036996;28;20017;-69
2023/07/11 01:14:45;;;;;;;4.78;2.75;;;20.20;99.90;;;;;;5036705;28;20075;-69
2023/07/11 01:17:20;;;;;;;3.13;1.92;;;20.30;99.90;;;;;;5037094;28;20025;-69
2023/07/11 01:19:46;;;;;;;4.47;2.50;;;20.40;99.90;;;;;;5036504;28;20030;-69
2023/07/11 01:22:11;;;;;;;7.53;2.63;;;20.10;99.90;;;;;;5037036;28;20017;-69
2023/07/11 01:24:37;;;;;;;5.22;2.42;;;20.00;99.90;;;;;;5036339;28;20102;-69
2023/07/11 01:27:03;;;;;;;2.80;2.00;;;20.00;99.90;;;;;;5037255;28;20018;-69
2023/07/11 01:29:29;;;;;;;5.10;2.35;;;20.00;99.90;;;;;;5036623;28;20022;-69
2023/07/11 01:31:54;;;;;;;3.90;2.40;;;20.10;99.90;;;;;;5036347;28;20084;-69
2023/07/11 01:34:20;;;;;;;5.03;2.30;;;20.20;99.90;;;;;;5036490;28;20025;-69
2023/07/11 01:36:45;;;;;;;5.68;2.30;;;20.40;99.90;;;;;;5036548;28;20278;-69
2023/07/11 01:39:11;;;;;;;3.40;2.53;;;20.30;99.90;;;;;;5036311;28;20041;-69
2023/07/11 01:41:36;;;;;;;3.25;2.00;;;20.30;99.90;;;;;;5036561;28;20032;-69
2023/07/11 01:44:03;;;;;;;4.43;2.35;;;20.30;99.90;;;;;;5036373;28;20075;-69
2023/07/11 01:46:28;;;;;;;4.22;2.03;;;20.20;99.90;;;;;;5036166;28;20026;-69
2023/07/11 01:48:54;;;;;;;7.10;2.15;;;20.30;99.90;;;;;;5036243;28;20094;-69
2023/07/11 01:51:20;;;;;;;2.95;2.10;;;20.30;99.90;;;;;;5036000;28;20122;-69
2023/07/11 01:53:45;;;;;;;3.50;2.03;;;20.40;99.90;;;;;;5036875;28;20036;-69
2023/07/11 01:56:11;;;;;;;4.97;1.85;;;20.30;99.90;;;;;;5036621;28;20025;-70
2023/07/11 01:58:38;;;;;;;3.35;2.10;;;20.30;99.90;;;;;;5036124;28;20024;-71
2023/07/11 02:01:03;;;;;;;3.10;2.25;;;20.50;99.90;;;;;;5036928;28;20029;-70
2023/07/11 02:03:29;;;;;;;2.97;1.80;;;20.40;99.90;;;;;;5036313;28;20092;-70
2023/07/11 02:05:55;;;;;;;6.55;2.13;;;20.30;99.90;;;;;;5036296;28;20071;-70
2023/07/11 02:08:20;;;;;;;5.85;2.58;;;20.30;99.90;;;;;;5035738;28;20036;-70
2023/07/11 02:10:46;;;;;;;5.80;2.40;;;20.10;99.90;;;;;;5036006;28;20035;-70
2023/07/11 02:13:12;;;;;;;4.18;2.20;;;20.20;99.90;;;;;;5036247;28;20052;-70
2023/07/11 02:15:37;;;;;;;4.72;2.05;;;20.10;99.90;;;;;;5036054;28;20018;-70
2023/07/11 02:18:03;;;;;;;4.80;2.22;;;20.20;99.90;;;;;;5036046;28;20088;-70
2023/07/11 02:20:29;;;;;;;4.82;2.30;;;20.10;99.90;;;;;;5035792;28;20029;-70
2023/07/11 02:22:54;;;;;;;8.02;2.30;;;20.10;99.90;;;;;;5036508;28;20075;-70
2023/07/11 02:25:20;;;;;;;4.97;2.20;;;20.10;99.90;;;;;;5035814;28;20032;-70
2023/07/11 02:27:45;;;;;;;7.35;2.45;;;20.10;99.90;;;;;;5035578;28;20034;-70
2023/07/11 02:30:11;;;;;;;6.25;2.40;;;20.10;99.90;;;;;;5035369;28;20060;-70
2023/07/11 02:32:39;;;;;;;3.20;1.90;;;20.10;99.90;;;;;;5035584;28;20025;-71
2023/07/11 02:35:05;;;;;;;4.05;2.28;;;20.00;99.90;;;;;;5035941;28;20022;-70
2023/07/11 02:37:31;;;;;;;5.97;2.40;;;20.00;99.90;;;;;;5035374;28;20025;-70
2023/07/11 02:39:56;;;;;;;3.67;2.28;;;19.90;99.90;;;;;;5035663;28;20093;-70
2023/07/11 02:42:22;;;;;;;4.45;1.98;;;19.90;99.90;;;;;;5035360;28;20029;-70
2023/07/11 02:44:47;;;;;;;6.85;2.28;;;19.80;99.90;;;;;;5035410;28;20029;-70
2023/07/11 02:47:13;;;;;;;3.50;2.17;;;19.80;99.90;;;;;;5035458;28;20049;-70
2023/07/11 02:49:40;;;;;;;3.70;2.17;;;19.90;99.90;;;;;;5035131;28;20025;-70
2023/07/11 02:52:07;;;;;;;5.35;2.55;;;19.90;99.90;;;;;;5035711;28;20018;-70
2023/07/11 02:54:33;;;;;;;4.70;2.30;;;19.80;99.90;;;;;;5035629;28;20022;-70
2023/07/11 02:56:58;;;;;;;3.33;1.83;;;19.70;99.90;;;;;;5035883;28;20044;-70
2023/07/11 02:59:24;;;;;;;4.05;2.85;;;19.60;99.90;;;;;;5055623;28;20017;-70
2023/07/11 03:01:50;;;;;;;4.07;2.45;;;19.40;99.90;;;;;;5059109;28;20025;-69
2023/07/11 03:04:15;;;;;;;7.03;2.30;;;19.40;99.90;;;;;;5059066;28;20075;-69
2023/07/11 03:06:41;;;;;;;3.50;2.28;;;19.30;99.90;;;;;;5059022;28;20056;-70
2023/07/11 03:09:06;;;;;;;5.13;2.33;;;19.20;99.90;;;;;;5059046;28;20051;-70
2023/07/11 03:11:32;;;;;;;7.28;2.05;;;19.20;99.90;;;;;;5058847;28;20021;-69
2023/07/11 03:13:57;;;;;;;3.13;2.30;;;19.10;99.90;;;;;;5058935;28;20025;-69
2023/07/11 03:16:23;;;;;;;4.07;2.22;;;19.20;99.90;;;;;;5058533;28;20025;-69
2023/07/11 03:18:48;;;;;;;4.90;2.00;;;19.00;99.90;;;;;;5058613;28;20093;-69
2023/07/11 03:21:14;;;;;;;3.33;2.05;;;18.90;99.90;;;;;;5059094;28;20021;-69
2023/07/11 03:23:39;;;;;;;3.55;2.22;;;18.90;99.90;;;;;;5058627;28;20032;-69
2023/07/11 03:26:05;;;;;;;5.28;2.35;;;18.70;99.90;;;;;;5058371;28;20115;-71
2023/07/11 03:28:31;;;;;;;5.97;2.53;;;18.50;99.90;;;;;;5058864;28;20025;-71
2023/07/11 03:30:56;;;;;;;5.88;2.50;;;18.50;99.90;;;;;;5058858;28;20092;-71
2023/07/11 03:33:22;;;;;;;3.85;2.30;;;18.50;99.90;;;;;;5058788;28;20112;-71
2023/07/11 03:35:49;;;;;;;2.95;2.35;;;18.40;99.90;;;;;;5058345;28;20080;-71
2023/07/11 03:38:15;;;;;;;3.80;2.20;;;18.40;99.90;;;;;;5058180;28;20048;-69
2023/07/11 03:40:41;;;;;;;6.00;2.03;;;18.60;99.90;;;;;;5059046;28;20025;-69
2023/07/11 03:43:06;;;;;;;3.63;2.53;;;18.70;99.90;;;;;;5058140;28;20055;-69
2023/07/11 03:45:32;;;;;;;6.40;2.83;;;18.80;99.90;;;;;;5058608;28;20033;-69
2023/07/11 03:47:57;;;;;;;4.05;2.00;;;18.70;99.90;;;;;;5057734;28;20055;-69
2023/07/11 03:50:23;;;;;;;3.50;2.13;;;18.60;99.90;;;;;;5057806;28;20036;-69
2023/07/11 03:52:48;;;;;;;6.50;2.53;;;18.60;99.90;;;;;;5057810;28;20059;-69
2023/07/11 03:55:14;;;;;;;3.58;2.20;;;18.70;99.90;;;;;;5058472;28;20029;-69
2023/07/11 03:57:39;;;;;;;4.88;2.30;;;18.70;99.90;;;;;;5058035;28;20051;-69
2023/07/11 04:00:05;;;;;;;4.18;2.63;;;18.70;99.90;;;;;;5057876;28;20051;-69
2023/07/11 04:02:31;;;;;;;3.38;2.47;;;18.80;99.90;;;;;;5057645;28;20021;-69
2023/07/11 04:04:57;;;;;;;3.58;2.33;;;18.80;99.90;;;;;;5057989;28;20028;-69
2023/07/11 04:07:22;;;;;;;7.65;2.38;;;18.80;99.90;;;;;;5058229;28;20059;-69
2023/07/11 04:09:48;;;;;;;4.75;2.70;;;18.90;99.90;;;;;;5057428;28;20032;-69
2023/07/11 04:12:13;;;;;;;5.28;2.47;;;18.80;99.90;;;;;;5057600;28;20116;-69
2023/07/11 04:14:39;;;;;;;4.03;2.42;;;18.80;99.90;;;;;;5057368;28;20025;-69
2023/07/11 04:17:05;;;;;;;5.07;2.70;;;18.60;99.90;;;;;;5057698;28;20028;-69
2023/07/11 04:19:30;;;;;;;4.35;2.47;;;18.50;99.90;;;;;;5057678;28;20021;-69
2023/07/11 04:21:56;;;;;;;4.60;2.53;;;18.40;99.90;;;;;;5057526;28;20051;-69
2023/07/11 04:24:21;;;;;;;5.80;2.22;;;18.50;99.90;;;;;;5057647;28;20036;-69
2023/07/11 04:26:47;;;;;;;3.35;2.17;;;18.50;99.90;;;;;;5057656;28;20111;-69
2023/07/11 04:29:12;;;;;;;4.75;2.60;;;18.60;99.90;;;;;;5057287;28;20025;-69
2023/07/11 04:31:38;;;;;;;2.97;1.95;;;18.70;99.90;;;;;;5056997;28;20064;-69
2023/07/11 04:34:03;;;;;;;6.00;2.67;;;18.60;99.90;;;;;;5056898;28;20021;-69
2023/07/11 04:36:29;;;;;;;5.15;2.78;;;18.70;99.90;;;;;;5057835;28;20017;-69
2023/07/11 04:38:55;;;;;;;5.75;2.05;;;18.90;99.90;;;;;;5057274;28;20028;-69
2023/07/11 04:41:20;;;;;;;4.10;2.25;;;18.90;99.90;;;;;;5057394;28;20029;-67
2023/07/11 04:43:46;;;;;;;3.85;2.28;;;18.90;99.90;;;;;;5056593;28;20039;-67
2023/07/11 04:46:11;;;;;;;4.05;2.35;;;19.00;99.90;;;;;;5057005;28;20036;-67
2023/07/11 04:48:37;;;;;;;3.30;2.42;;;19.10;99.90;;;;;;5056624;28;20021;-67
2023/07/11 04:51:06;;;;;;;5.07;2.53;;;19.10;99.90;;;;;;5056728;28;20048;-67
2023/07/11 04:53:33;;;;;;;4.43;2.25;;;19.10;99.90;;;;;;5056617;28;20108;-66
2023/07/11 04:56:06;;;;;;;4.38;2.50;;;19.20;99.90;;;;;;5056640;28;20021;-66
2023/07/11 04:58:33;;;;;;;4.93;2.65;;;19.30;99.90;;;;;;5056666;28;20031;-67
2023/07/11 05:01:04;;;;;;;5.10;2.75;;;19.30;99.90;;;;;;5056975;28;20060;-66
2023/07/11 05:03:30;;;;;;;6.45;2.60;;;19.30;99.90;;;;;;5056935;28;20025;-67
2023/07/11 05:05:56;;;;;;;12.70;2.95;;;19.40;99.90;;;;;;5056616;28;20055;-67
2023/07/11 05:08:22;;;;;;;4.50;3.13;;;19.40;99.90;;;;;;5056613;28;20025;-67
2023/07/11 05:11:01;;;;;;;4.80;2.20;;;19.30;99.90;;;;;;5056989;28;20109;-67
2023/07/11 05:13:28;;;;;;;6.28;2.67;;;19.50;99.90;;;;;;5056868;28;20029;-67
2023/07/11 05:16:04;;;;;;;3.90;2.55;;;19.60;99.90;;;;;;5056178;28;20032;-67
2023/07/11 05:18:31;;;;;;;7.50;2.88;;;19.60;99.90;;;;;;5056877;28;20020;-67
2023/07/11 05:20:58;;;;;;;3.70;2.10;;;19.60;99.90;;;;;;5056425;28;20027;-67
2023/07/11 05:23:26;;;;;;;6.18;2.40;;;19.70;99.90;;;;;;5056570;28;20031;-67
2023/07/11 05:25:54;;;;;;;3.22;2.50;;;19.70;99.90;;;;;;5056323;28;20036;-66
2023/07/11 05:28:20;;;;;;;4.18;2.30;;;19.80;99.90;;;;;;5056374;28;20117;-67
2023/07/11 05:30:46;;;;;;;6.78;3.25;;;19.90;99.90;;;;;;5056413;28;20029;-67
2023/07/11 05:33:12;;;;;;;4.10;2.50;;;19.90;99.90;;;;;;5056274;28;20056;-67
2023/07/11 05:35:45;;;;;;;11.02;2.63;;;20.00;99.90;;;;;;5056454;28;20031;-67
2023/07/11 05:38:11;;;;;;;4.50;2.78;;;19.90;99.90;;;;;;5056333;28;20111;-67
2023/07/11 05:40:40;;;;;;;8.30;2.50;;;19.90;99.90;;;;;;5055764;28;20032;-67
2023/07/11 05:43:06;;;;;;;6.65;2.50;;;20.00;99.90;;;;;;5056201;28;20058;-67
2023/07/11 05:45:31;;;;;;;11.40;3.08;;;19.90;99.90;;;;;;5056337;28;20025;-67
2023/07/11 05:47:59;;;;;;;5.10;2.42;;;20.00;99.90;;;;;;5055756;28;20063;-67
2023/07/11 05:50:25;;;;;;;8.02;2.70;;;20.00;99.90;;;;;;5055920;28;20036;-67
2023/07/11 05:52:50;;;;;;;6.40;2.75;;;20.10;99.90;;;;;;5056016;28;20017;-67
2023/07/11 05:55:16;;;;;;;7.63;2.90;;;20.30;99.90;;;;;;5055831;28;20029;-67
2023/07/11 05:57:42;;;;;;;8.98;3.30;;;20.50;99.90;;;;;;5056072;28;20025;-67
2023/07/11 06:00:09;;;;;;;6.93;3.45;;;20.50;99.90;;;;;;5055600;28;20025;-67
2023/07/11 06:02:36;;;;;;;4.45;3.20;;;20.50;99.90;;;;;;5055621;28;20021;-67
2023/07/11 06:05:01;;;;;;;5.25;3.30;;;20.60;99.90;;;;;;5056326;28;20025;-67
2023/07/11 06:07:28;;;;;;;5.63;3.03;;;20.70;99.90;;;;;;5055651;28;20032;-67
2023/07/11 06:09:55;;;;;;;6.80;4.25;;;20.80;99.90;;;;;;5055742;28;20028;-67
2023/07/11 06:12:21;;;;;;;6.55;3.90;;;20.70;99.90;;;;;;5055662;28;20047;-67
2023/07/11 06:14:48;;;;;;;8.82;4.53;;;20.80;99.90;;;;;;5055623;28;20021;-67
2023/07/11 06:17:14;;;;;;;10.40;4.82;;;20.90;99.90;;;;;;5056606;28;20021;-67
2023/07/11 06:19:40;;;;;;;8.32;4.30;;;21.10;99.90;;;;;;5056444;28;20035;-68
2023/07/11 06:22:05;;;;;;;8.13;3.70;;;21.10;99.90;;;;;;5055802;28;20028;-67
2023/07/11 06:24:31;;;;;;;9.73;3.22;;;21.10;99.90;;;;;;5056508;28;20105;-67
2023/07/11 06:26:56;;;;;;;4.78;3.00;;;21.10;99.90;;;;;;5055721;28;20125;-67
2023/07/11 06:29:22;;;;;;;7.00;3.17;;;21.20;99.90;;;;;;5056254;28;20075;-67
2023/07/11 06:31:47;;;;;;;4.65;2.65;;;21.30;99.90;;;;;;5055464;28;20051;-67
2023/07/11 06:34:13;;;;;;;6.78;3.88;;;21.30;99.90;;;;;;5059184;28;20028;-66
2023/07/11 06:36:38;;;;;;;4.63;2.88;;;21.40;99.90;;;;;;5059282;28;20021;-67
2023/07/11 06:39:04;;;;;;;9.32;3.53;;;21.50;99.90;;;;;;5059625;28;20088;-69
2023/07/11 06:41:30;;;;;;;3.83;2.72;;;21.60;99.90;;;;;;5059608;28;20035;-69
2023/07/11 06:43:56;;;;;;;5.57;2.80;;;21.70;99.90;;;;;;5054127;28;20064;-69
2023/07/11 06:46:22;;;;;;;6.15;3.50;;;21.90;99.90;;;;;;5051288;28;20029;-69
2023/07/11 06:48:47;;;;;;;4.80;3.05;;;21.90;99.90;;;;;;5058862;28;20025;-69
2023/07/11 06:51:13;;;;;;;6.47;3.25;;;22.00;99.90;;;;;;5040079;28;20033;-69
2023/07/11 06:53:42;;;;;;;6.38;3.00;;;22.00;99.90;;;;;;5039753;28;20036;-70
2023/07/11 06:56:08;;;;;;;4.28;3.47;;;22.10;99.90;;;;;;5039042;28;20035;-69
2023/07/11 06:58:34;;;;;;;4.32;2.85;;;22.30;99.90;;;;;;5039252;28;20017;-70
2023/07/11 07:01:03;;;;;;;4.25;2.55;;;22.30;99.90;;;;;;5039684;28;20033;-70
2023/07/11 07:03:29;;;;;;;7.55;2.75;;;22.50;99.90;;;;;;5058546;28;20060;-70
2023/07/11 07:05:58;;;;;;;7.07;3.15;;;22.70;99.90;;;;;;5058671;28;20029;-69
2023/07/11 07:08:25;;;;;;;7.07;3.03;;;22.60;99.90;;;;;;5058724;28;20035;-70
2023/07/11 07:10:51;;;;;;;6.53;3.67;;;22.60;99.90;;;;;;5058951;28;20031;-70
2023/07/11 07:13:24;;;;;;;6.45;3.38;;;22.60;99.90;;;;;;5058675;28;20060;-69
2023/07/11 07:15:56;;;;;;;7.20;3.63;;;22.50;99.90;;;;;;5058659;28;20025;-69
2023/07/11 07:18:23;;;;;;;8.00;3.25;;;22.40;99.90;;;;;;5052337;28;20021;-69
2023/07/11 07:21:04;;;;;;;6.68;2.97;;;22.40;99.90;;;;;;5051089;28;20025;-69
2023/07/11 07:23:31;;;;;;;7.05;3.60;;;22.40;99.90;;;;;;5050145;28;20038;-69
2023/07/11 07:25:59;;;;;;;4.63;2.97;;;22.40;99.90;;;;;;5058403;28;20056;-70
2023/07/11 07:28:26;;;;;;;4.13;3.20;;;22.60;99.90;;;;;;5058831;28;20078;-69
2023/07/11 07:30:54;;;;;;;5.38;3.65;;;22.90;99.90;;;;;;5045825;28;20101;-70
2023/07/11 07:33:23;;;;;;;6.22;3.42;;;23.00;99.90;;;;;;5046759;28;20056;-70
2023/07/11 07:35:49;;;;;;;5.32;3.53;;;23.10;99.90;;;;;;5055270;28;20025;-69
2023/07/11 07:38:20;;;;;;;7.68;3.72;;;23.10;99.90;;;;;;5058984;28;20096;-70
2023/07/11 07:40:51;;;;;;;6.13;3.65;;;23.30;99.90;;;;;;5058553;28;20106;-70
2023/07/11 07:43:17;;;;;;;8.18;3.90;;;23.50;99.90;;;;;;5058720;28;20056;-70
2023/07/11 07:45:46;;;;;;;6.60;3.80;;;23.90;99.90;;;;;;5058316;28;20033;-70
2023/07/11 07:48:12;;;;;;;5.63;3.90;;;24.00;99.90;;;;;;5059035;28;20060;-70
2023/07/11 07:50:37;;;;;;;7.53;3.40;;;24.20;99.90;;;;;;5058765;28;20069;-70
2023/07/11 07:53:03;;;;;;;6.40;4.07;;;24.30;99.90;;;;;;5058210;28;20108;-71
2023/07/11 07:55:28;;;;;;;5.55;3.70;;;24.30;99.90;;;;;;5058108;28;20021;-70
2023/07/11 07:57:54;;;;;;;7.63;3.97;;;24.50;99.90;;;;;;5058524;28;20029;-70
2023/07/11 08:00:19;;;;;;;9.02;4.00;;;24.60;99.90;;;;;;5058826;28;20028;-70
2023/07/11 08:02:45;;;;;;;7.75;3.78;;;24.80;99.90;;;;;;5058011;28;20029;-70
2023/07/11 08:05:11;;;;;;;10.05;4.35;;;24.90;99.90;;;;;;5057810;28;20025;-69
2023/07/11 08:07:36;;;;;;;10.45;4.32;;;24.90;99.90;;;;;;5058085;28;20056;-69
2023/07/11 08:10:02;;;;;;;13.98;4.72;;;25.10;99.90;;;;;;5057991;28;20063;-70
2023/07/11 08:12:28;;;;;;;10.20;5.05;;;25.00;99.90;;;;;;5058631;28;20040;-70
2023/07/11 08:14:53;;;;;;;8.00;4.20;;;24.90;99.90;;;;;;5057232;28;20028;-69
2023/07/11 08:17:19;;;;;;;20.02;4.57;;;25.10;99.90;;;;;;5057904;28;20024;-69
2023/07/11 08:19:44;;;;;;;11.57;4.70;;;25.40;99.90;;;;;;5057720;28;20120;-68
2023/07/11 08:22:10;;;;;;;6.47;3.53;;;25.50;99.90;;;;;;5057526;28;20115;-70
2023/07/11 08:24:35;;;;;;;8.50;4.32;;;25.30;99.90;;;;;;5057360;28;20027;-69
2023/07/11 08:27:01;;;;;;;7.18;4.20;;;25.40;99.90;;;;;;5057364;28;20021;-69
2023/07/11 08:29:40;;;;;;;5.00;3.85;;;25.30;99.90;;;;;;5057908;28;20074;-68
2023/07/11 08:32:06;;;;;;;8.00;3.83;;;25.30;99.90;;;;;;5057115;28;20017;-68
2023/07/11 08:34:31;;;;;;;7.95;4.03;;;25.50;99.90;;;;;;5057300;28;20017;-69
2023/07/11 08:36:57;;;;;;;9.27;4.05;;;25.60;99.90;;;;;;5055931;28;20033;-69
2023/07/11 08:39:23;;;;;;;9.15;3.95;;;25.80;99.90;;;;;;5038096;28;20024;-69
2023/07/11 08:41:51;;;;;;;7.35;3.95;;;26.20;99.90;;;;;;5037952;28;20025;-69
2023/07/11 08:44:35;;;;;;;7.85;4.00;;;26.50;99.90;;;;;;5037394;28;20086;-69
2023/07/11 08:47:10;;;;;;;10.07;3.75;;;26.40;99.90;;;;;;5037823;28;20052;-68
2023/07/11 08:49:50;;;;;;;7.97;4.00;;;26.70;99.90;;;;;;5037578;28;20061;-70
2023/07/11 08:52:18;;;;;;;10.02;3.72;;;26.80;99.90;;;;;;5036983;28;20025;-69
2023/07/11 08:54:56;;;;;;;9.98;3.97;;;26.80;99.90;;;;;;5037522;28;20024;-69
2023/07/11 08:57:23;;;;;;;8.88;4.30;;;27.00;99.90;;;;;;5037660;28;20017;-70
2023/07/11 09:00:07;;;;;;;10.07;4.15;;;27.10;99.90;;;;;;5037734;28;20014;-70
2023/07/11 09:03:27;;;;;;;6.93;4.03;;;27.20;99.90;;;;;;5037544;28;20087;-69
2023/07/11 09:06:07;;;;;;;11.70;3.90;;;27.30;99.90;;;;;;5036710;28;20021;-68
2023/07/11 09:08:42;;;;;;;11.60;4.03;;;27.60;99.90;;;;;;5036813;28;20044;-70
2023/07/11 09:11:47;;;;;;;7.63;3.60;;;27.70;99.90;;;;;;5037477;28;20087;-70
2023/07/11 09:14:34;;;;;;;11.82;3.75;;;27.70;99.90;;;;;;5036605;28;20025;-70
2023/07/11 09:17:14;;;;;;;6.28;3.80;;;27.60;99.90;;;;;;5036422;28;20022;-71
2023/07/11 09:20:10;;;;;;;4.55;3.55;;;27.40;99.90;;;;;;5037533;28;20027;-66
2023/07/11 09:26:02;;;;;;;7.50;3.70;;;27.90;99.90;;;;;;5037638;28;20056;-66
2023/07/11 09:28:29;;;;;;;7.03;3.80;;;28.10;99.90;;;;;;5036377;28;20021;-65
2023/07/11 09:31:03;;;;;;;6.15;3.55;;;28.30;99.90;;;;;;5037268;28;20025;-66
2023/07/11 09:33:36;;;;;;;7.57;3.83;;;28.20;99.90;;;;;;5056296;28;20052;-67
2023/07/11 09:36:18;;;;;;;4.55;3.40;;;28.60;99.90;;;;;;5056231;28;20099;-66
2023/07/11 09:39:22;;;;;;;5.43;3.78;;;28.70;99.90;;;;;;5056124;28;20116;-67
2023/07/11 09:42:04;;;;;;;7.57;4.00;;;28.80;99.90;;;;;;5054831;28;20044;-66
2023/07/11 09:44:29;;;;;;;7.03;4.00;;;28.80;99.90;;;;;;5056811;28;20032;-66
2023/07/11 09:46:55;;;;;;;4.28;3.20;;;28.80;99.90;;;;;;5056109;28;20017;-66
2023/07/11 09:49:31;;;;;;;7.00;3.70;;;28.90;99.90;;;;;;5048563;28;20029;-66
2023/07/11 09:52:03;;;;;;;4.90;3.75;;;29.00;99.90;;;;;;5052510;28;20032;-67
2023/07/11 09:54:45;;;;;;;9.35;3.97;;;29.20;99.90;;;;;;5052285;28;20030;-67
2023/07/11 09:57:12;;;;;;;7.82;4.35;;;29.40;99.90;;;;;;5036082;28;20022;-69
2023/07/11 09:59:42;;;;;;;7.10;3.65;;;29.60;99.90;;;;;;5036065;28;20045;-69
2023/07/11 10:02:16;;;;;;;6.10;4.13;;;29.40;99.90;;;;;;5035900;28;20031;-68
2023/07/11 10:04:42;;;;;;;4.45;3.92;;;29.60;99.90;;;;;;5036489;28;20056;-68
2023/07/11 10:07:14;;;;;;;6.82;4.38;;;29.70;99.90;;;;;;5045579;28;20028;-69
2023/07/11 10:09:50;;;;;;;7.97;4.68;;;29.60;99.90;;;;;;5059756;28;20025;-67
2023/07/11 10:12:21;;;;;;;6.78;3.97;;;29.50;99.90;;;;;;5060136;28;20032;-67
2023/07/11 10:14:52;;;;;;;;;;;29.70;99.90;;;;;;5061087;28;20028;-67
2023/07/11 10:17:36;;;;;;;6.80;4.38;;;29.60;99.90;;;;;;5060197;28;19995;-66
2023/07/11 10:20:04;;;;;;;6.70;4.22;;;29.90;99.90;;;;;;5060860;28;20021;-66
2023/07/11 10:22:31;;;;;;;7.47;4.22;;;30.00;99.90;;;;;;5059539;28;20028;-66
2023/07/11 10:25:27;;;;;;;6.95;3.78;;;30.20;99.90;;;;;;5059964;28;20028;-66
2023/07/11 10:28:01;;;;;;;5.80;4.13;;;30.20;99.90;;;;;;5060030;28;20064;-66
2023/07/11 10:30:33;;;;;;;6.85;4.30;;;30.40;99.90;;;;;;5060302;28;20025;-66
2023/07/11 10:33:09;;;;;;;7.50;4.18;;;30.50;99.90;;;;;;5060793;28;20029;-66
2023/07/11 10:35:37;;;;;;;6.38;4.47;;;30.80;99.90;;;;;;5059602;28;20088;-66
2023/07/11 10:38:06;;;;;;;7.13;4.65;;;30.70;99.90;;;;;;5059310;28;20021;-66
2023/07/11 10:40:42;;;;;;;5.93;4.57;;;30.90;99.90;;;;;;5059183;28;20078;-66
2023/07/11 10:43:23;;;;;;;6.70;4.80;;;30.90;99.90;;;;;;5055855;28;20018;-67
2023/07/11 10:45:54;;;;;;;11.38;5.53;;;31.00;99.90;;;;;;5039277;28;20034;-66
2023/07/11 10:48:38;;;;;;;5.25;4.32;;;31.10;98.90;;;;;;5039436;28;20017;-66
2023/07/11 10:51:43;;;;;;;9.07;4.47;;;31.00;99.30;;;;;;5039406;28;20033;-67
2023/07/11 10:54:22;;;;;;;7.25;4.35;;;31.00;99.10;;;;;;5018628;28;20030;-67
2023/07/11 10:56:52;;;;;;;9.73;4.10;;;31.30;98.00;;;;;;5002321;28;20041;-67
2023/07/11 10:59:22;;;;;;;6.25;4.18;;;31.50;97.60;;;;;;5018689;28;20089;-66
2023/07/11 11:02:05;;;;;;;8.65;4.18;;;31.60;97.20;;;;;;5018538;28;20041;-67
2023/07/11 11:04:36;;;;;;;4.82;3.30;;;31.80;96.60;;;;;;5002165;28;20029;-68
2023/07/11 11:07:16;;;;;;;7.03;4.35;;;31.80;95.50;;;;;;5001685;28;20061;-69
2023/07/11 11:10:06;;;;;;;13.60;4.10;;;31.60;96.20;;;;;;5002132;28;20057;-69
2023/07/11 11:12:42;;;;;;;6.60;3.95;;;31.20;96.70;;;;;;5002257;28;20030;-71
2023/07/11 11:15:13;;;;;;;6.38;3.97;;;31.20;96.00;;;;;;5018398;28;20030;-69
2023/07/11 11:18:06;;;;;;;7.07;3.97;;;31.00;96.70;;;;;;5001762;28;20072;-69
2023/07/11 11:20:47;;;;;;;5.13;4.05;;;30.80;96.80;;;;;;5011843;28;20121;-70
2023/07/11 11:23:49;;;;;;;8.30;3.70;;;30.80;97.30;;;;;;5010327;28;20117;-69
2023/07/11 11:26:30;;;;;;;6.20;3.97;;;31.00;96.70;;;;;;5009347;28;20026;-69
2023/07/11 11:29:40;;;;;;;6.85;4.20;;;31.40;96.30;;;;;;5018227;28;20064;-69
2023/07/11 11:32:32;;;;;;;9.07;4.47;;;32.10;95.60;;;;;;4992724;28;20117;-69
2023/07/11 11:35:14;;;;;;;7.63;4.20;;;32.40;94.20;;;;;;5043582;28;20092;-69
2023/07/11 11:38:07;;;;;;;6.60;4.10;;;32.60;93.60;;;;;;5049140;28;20025;-69
2023/07/11 11:40:43;;;;;;;7.60;4.20;;;32.70;93.70;;;;;;5046914;28;20100;-69
2023/07/11 11:43:14;;;;;;;9.52;4.05;;;32.70;92.90;;;;;;5049119;28;20156;-70
2023/07/11 11:45:40;;;;;;;6.82;3.92;;;32.60;92.90;;;;;;5046626;28;20021;-69
2023/07/11 11:48:14;;;;;;;8.55;5.00;;;32.80;91.70;;;;;;5047977;28;20063;-69
2023/07/11 11:50:41;;;;;;;6.53;4.43;;;33.10;89.20;;;;;;5046540;28;20056;-69
2023/07/11 11:53:44;;;;;;;7.13;4.22;;;33.20;86.60;;;;;;5047619;28;20017;-69
2023/07/11 11:56:13;;;;;;;9.85;4.05;;;33.40;86.70;;;;;;5046539;28;20013;-69
2023/07/11 11:58:56;;;;;;;6.05;4.00;;;33.30;85.40;;;;;;5047066;28;20097;-70
2023/07/11 12:01:38;;;;;;;6.97;3.97;;;33.00;87.30;;;;;;5048672;28;20049;-69
2023/07/11 12:04:29;;;;;;;12.27;5.28;;;33.00;88.30;;;;;;5048147;28;20024;-69
2023/07/11 12:07:01;;;;;;;8.75;4.53;;;33.10;86.20;;;;;;5048328;28;20071;-69
2023/07/11 12:09:38;;;;;;;7.63;4.00;;;33.20;85.40;;;;;;5047525;28;20026;-70
2023/07/11 12:12:04;;;;;;;8.02;4.72;;;33.30;84.60;;;;;;5049951;28;20025;-70
2023/07/11 12:14:52;;;;;;;5.38;4.43;;;33.40;86.20;;;;;;5048926;28;20033;-69
2023/07/11 12:17:32;;;;;;;8.07;4.72;;;33.60;86.40;;;;;;5048673;28;20021;-69
2023/07/11 12:20:01;;;;;;;10.80;4.13;;;33.60;85.90;;;;;;5048673;28;20017;-70
2023/07/11 12:22:30;;;;;;;7.70;4.75;;;33.40;86.10;;;;;;5047266;28;20021;-70
2023/07/11 12:25:13;;;;;;;6.35;4.30;;;33.50;85.00;;;;;;5046223;28;20064;-70
2023/07/11 12:27:42;;;;;;;5.97;4.25;;;33.70;82.10;;;;;;5049117;28;20051;-70
2023/07/11 12:30:13;;;;;;;8.18;5.03;;;33.70;82.10;;;;;;5036796;28;20017;-69
2023/07/11 12:32:47;;;;;;;5.82;4.28;;;33.70;81.80;;;;;;5037546;28;20021;-69
2023/07/11 12:35:16;;;;;;;7.43;4.47;;;33.70;81.50;;;;;;5037738;28;20056;-69
2023/07/11 12:37:57;;;;;;;6.80;4.43;;;33.80;81.90;;;;;;5036931;28;20048;-69
2023/07/11 12:41:06;;;;;;;6.47;4.22;;;33.60;80.90;;;;;;5037061;28;20116;-70
2023/07/11 12:43:34;;;;;;;6.35;4.30;;;33.60;81.20;;;;;;5040795;28;20029;-70
2023/07/11 12:46:09;;;;;;;7.70;4.75;;;33.50;81.50;;;;;;5037016;28;20026;-70
2023/07/11 12:48:42;;;;;;;6.72;4.35;;;33.60;80.20;;;;;;5036961;28;20025;-69
2023/07/11 12:51:26;;;;;;;8.32;4.47;;;33.80;78.80;;;;;;5037360;28;20025;-70
2023/07/11 12:54:00;;;;;;;5.32;4.18;;;33.90;78.90;;;;;;5057199;28;20045;-70
2023/07/11 12:56:28;;;;;;;7.80;4.13;;;34.10;78.50;;;;;;5056985;28;20033;-70
2023/07/11 12:58:54;;;;;;;9.52;4.82;;;34.10;78.40;;;;;;5057532;28;20024;-70
2023/07/11 13:01:19;;;;;;;6.75;4.38;;;34.10;77.80;;;;;;5056956;28;20029;-70
2023/07/11 13:03:45;;;;;;;7.13;4.43;;;34.10;78.20;;;;;;5056531;28;20029;-70